Time;durP1;ratioP1;P1;durP2;ratioP2;P2;SDS_P1;SDS_P2;PMS_P1;PMS_P2;Temp;Humidity;BMP_temperature;BMP_pressure;BME280_temperature;BME280_humidity;BME280_pressure;Samples;Min_cycle;Max_cycle;Signal;HPM_P1;HPM_P2
2022/06/19 17:39:29;;;;;;;11.40;4.80;;;;;;;;;;5088673;28;20411;-67
2022/06/19 17:41:57;;;;;;;9.07;3.58;;;;;;;;;;5067808;28;20036;-67
2022/06/19 17:44:24;;;;;;;6.47;3.63;;;;;;;;;;5064522;28;20060;-67
2022/06/19 17:47:04;;;;;;;8.13;4.38;;;;;;;;;;5050450;28;20075;-66
2022/06/19 17:49:38;;;;;;;7.32;4.70;;;;;;;;;;5069199;28;20098;-66
2022/06/19 17:52:24;;;;;;;7.40;4.68;;;;;;;;;;5069148;28;20115;-67
2022/06/19 17:54:55;;;;;;;9.82;5.63;;;;;;;;;;5056499;28;20500;-67
2022/06/19 17:57:40;;;;;;;9.27;4.90;;;;;;;;;;5068962;28;20520;-67
2022/06/19 18:00:15;;;;;;;10.57;6.25;;;;;;;;;;5040036;28;20052;-67
2022/06/19 18:02:51;;;;;;;10.23;6.22;;;;;;;;;;5068755;28;20036;-66
2022/06/19 18:05:25;;;;;;;12.55;6.53;;;;;;;;;;5050921;28;20044;-66
2022/06/19 18:07:53;;;;;;;8.70;5.67;;;;;;;;;;5068628;28;20040;-66
2022/06/19 18:10:44;;;;;;;8.50;5.53;;;;;;;;;;5068734;28;20048;-66
2022/06/19 18:13:12;;;;;;;9.15;5.15;;;;;;;;;;5068661;28;20041;-67
2022/06/19 18:18:42;;;;;;;8.30;4.53;;;;;;;;;;5068327;28;20439;-68
2022/06/19 18:21:22;;;;;;;9.98;4.80;;;;;;;;;;5069020;28;20045;-66
2022/06/19 18:23:53;;;;;;;9.35;4.95;;;;;;;;;;5055660;28;20128;-67
2022/06/19 18:26:41;;;;;;;6.60;4.40;;;;;;;;;;5068565;28;20036;-67
2022/06/19 18:29:14;;;;;;;6.68;4.72;;;;;;;;;;5068436;28;20086;-67
2022/06/19 18:31:43;;;;;;;8.00;4.25;;;;;;;;;;5068301;28;20044;-67
2022/06/19 18:34:11;;;;;;;8.93;4.88;;;;;;;;;;5068436;28;20557;-67
2022/06/19 18:36:39;;;;;;;8.48;4.40;;;;;;;;;;5068037;28;20494;-67
2022/06/19 18:39:33;;;;;;;7.70;5.15;;;;;;;;;;5060886;28;20057;-66
2022/06/19 18:42:10;;;;;;;12.88;6.82;;;;;;;;;;5054896;28;20041;-71
2022/06/19 18:44:37;;;;;;;10.85;6.50;;;;;;;;;;5055015;28;20044;-71
2022/06/19 18:47:07;;;;;;;11.40;6.50;;;;;;;;;;5054741;28;20456;-71
2022/06/19 18:49:36;;;;;;;14.30;6.38;;;;;;;;;;5054495;28;20041;-68
2022/06/19 18:52:05;;;;;;;11.32;7.25;;;;;;;;;;5044844;28;20095;-72
2022/06/19 18:54:34;;;;;;;12.35;6.60;;;;;;;;;;5054512;28;20068;-70
2022/06/19 18:57:03;;;;;;;23.08;13.60;;;;;;;;;;5024482;28;20560;-74
2022/06/19 18:59:31;;;;;;;22.80;12.35;;;;;;;;;;5054434;28;20047;-72
2022/06/19 19:01:58;;;;;;;38.15;29.50;;;;;;;;;;5054291;28;20037;-72
2022/06/19 19:04:26;;;;;;;60.38;43.28;;;;;;;;;;5054409;28;20040;-72
2022/06/19 19:06:55;;;;;;;218.60;160.82;;;;;;;;;;5043868;28;20060;-71
2022/06/19 19:09:25;;;;;;;255.88;190.90;;;;;;;;;;5055136;28;20485;-71
2022/06/19 19:11:53;;;;;;;247.50;172.57;;;;;;;;;;5056717;28;20481;-76
2022/06/19 19:14:22;;;;;;;193.02;130.35;;;;;;;;;;5057641;28;20098;-74
2022/06/19 19:16:50;;;;;;;118.82;76.13;;;;;;;;;;5054495;28;20095;-72
2022/06/19 19:19:19;;;;;;;35.28;23.70;;;;;;;;;;5054077;28;20477;-70
2022/06/19 19:21:47;;;;;;;29.13;16.23;;;;;;;;;;5068101;28;20036;-70
2022/06/19 19:24:15;;;;;;;16.45;10.48;;;;;;;;;;5054090;28;20048;-72
2022/06/19 19:26:44;;;;;;;16.67;11.85;;;;;;;;;;5054058;28;20441;-74
2022/06/19 19:29:17;;;;;;;22.63;14.23;;;;;;;;;;5040307;28;20029;-62
2022/06/19 19:31:45;;;;;;;17.92;13.52;;;;;;;;;;5054052;28;20063;-62
2022/06/19 19:34:13;;;;;;;17.23;12.30;;;;;;;;;;5053881;28;20037;-63
2022/06/19 19:36:42;;;;;;;18.33;12.35;;;;;;;;;;5067888;28;20046;-62
2022/06/19 19:39:16;;;;;;;18.80;13.00;;;;;;;;;;5053425;28;20053;-63
2022/06/19 19:41:45;;;;;;;20.05;11.75;;;;;;;;;;5053798;28;20387;-63
2022/06/19 19:44:13;;;;;;;16.73;10.30;;;;;;;;;;5042084;28;20037;-62
2022/06/19 19:46:43;;;;;;;19.15;10.45;;;;;;;;;;5061645;28;20393;-63
2022/06/19 19:49:14;;;;;;;20.45;12.15;;;;;;;;;;5035567;28;20037;-62
2022/06/19 19:51:42;;;;;;;24.13;15.13;;;;;;;;;;5052679;28;20465;-62
2022/06/19 19:54:12;;;;;;;35.65;17.00;;;;;;;;;;5053448;28;20048;-63
2022/06/19 19:56:40;;;;;;;38.05;19.52;;;;;;;;;;5053551;28;20068;-67
2022/06/19 19:59:09;;;;;;;35.92;19.42;;;;;;;;;;5053317;28;20039;-70
2022/06/19 20:01:36;;;;;;;38.78;19.67;;;;;;;;;;5053555;28;20041;-69
2022/06/19 20:04:04;;;;;;;42.13;19.00;;;;;;;;;;5053279;28;20044;-70
2022/06/19 20:12:10;;;;;;;28.40;14.30;;;;;;;;;;5060965;28;20064;-72
2022/06/19 20:14:38;;;;;;;33.30;16.65;;;;;;;;;;5058696;28;20044;-71
2022/06/19 20:17:06;;;;;;;29.38;16.92;;;;;;;;;;5061092;28;20106;-71
2022/06/19 20:19:34;;;;;;;42.20;20.98;;;;;;;;;;5035428;28;20749;-72
2022/06/19 20:22:12;;;;;;;62.47;38.03;;;;;;;;;;5053045;28;20132;-70
2022/06/19 20:24:46;;;;;;;200.30;114.97;;;;;;;;;;5066892;28;20547;-72
2022/06/19 20:27:15;;;;;;;74.38;45.17;;;;;;;;;;5052923;28;20557;-67
2022/06/19 20:29:54;;;;;;;34.10;18.38;;;;;;;;;;5053046;28;20398;-67
2022/06/19 20:32:30;;;;;;;14.68;9.00;;;;;;;;;;5041325;28;20037;-67
2022/06/19 20:34:58;;;;;;;12.90;7.75;;;;;;;;;;5035190;28;20396;-67
2022/06/19 20:37:27;;;;;;;38.70;22.05;;;;;;;;;;5052692;28;20049;-67
2022/06/19 20:39:54;;;;;;;30.77;18.48;;;;;;;;;;5049561;28;20437;-67
2022/06/19 20:42:22;;;;;;;28.55;18.15;;;;;;;;;;5052615;28;20048;-66
2022/06/19 20:44:50;;;;;;;29.38;16.25;;;;;;;;;;5051104;28;20615;-66
2022/06/19 20:47:25;;;;;;;18.90;11.88;;;;;;;;;;5051641;28;20033;-66
2022/06/19 20:50:18;;;;;;;16.58;8.85;;;;;;;;;;5052826;28;20124;-66
2022/06/19 20:52:46;;;;;;;16.85;7.85;;;;;;;;;;5052893;28;20049;-66
2022/06/19 20:55:20;;;;;;;11.68;6.72;;;;;;;;;;5052547;28;20044;-66
2022/06/19 20:57:47;;;;;;;10.68;5.32;;;;;;;;;;5052158;28;20087;-66
2022/06/19 21:00:18;;;;;;;7.72;5.00;;;;;;;;;;5052804;28;20521;-66
2022/06/19 21:02:46;;;;;;;7.68;5.65;;;;;;;;;;5052458;28;20446;-66
2022/06/19 21:05:14;;;;;;;6.85;3.90;;;;;;;;;;5052642;28;20044;-66
2022/06/19 21:07:42;;;;;;;8.77;4.40;;;;;;;;;;5052585;28;20037;-66
2022/06/19 21:10:19;;;;;;;5.72;4.60;;;;;;;;;;5052843;28;20048;-66
2022/06/19 21:12:46;;;;;;;12.75;5.72;;;;;;;;;;5052170;28;20107;-66
2022/06/19 21:15:15;;;;;;;10.45;5.22;;;;;;;;;;5052738;28;20041;-66
2022/06/19 21:17:43;;;;;;;7.68;5.13;;;;;;;;;;5052463;28;20525;-66
2022/06/19 21:20:11;;;;;;;11.63;6.10;;;;;;;;;;5052378;28;20608;-66
2022/06/19 21:22:41;;;;;;;7.28;4.53;;;;;;;;;;5052590;28;20552;-66
2022/06/19 21:25:24;;;;;;;6.93;4.80;;;;;;;;;;5051747;28;20041;-66
2022/06/19 21:27:53;;;;;;;6.97;4.80;;;;;;;;;;5052476;28;20364;-66
2022/06/19 21:30:22;;;;;;;7.53;4.80;;;;;;;;;;5052681;28;20072;-66
2022/06/19 21:32:49;;;;;;;8.98;5.10;;;;;;;;;;5052487;28;20033;-66
2022/06/19 21:35:17;;;;;;;6.60;4.90;;;;;;;;;;5052476;28;20049;-66
2022/06/19 21:37:47;;;;;;;9.52;4.60;;;;;;;;;;5052244;28;20060;-66
2022/06/19 21:40:17;;;;;;;8.95;5.00;;;;;;;;;;5052272;28;20047;-66
2022/06/19 21:42:45;;;;;;;9.45;5.50;;;;;;;;;;5052605;28;20090;-66
2022/06/19 21:45:13;;;;;;;9.38;5.35;;;;;;;;;;5052293;28;20082;-66
2022/06/19 21:47:41;;;;;;;6.63;4.90;;;;;;;;;;5052182;28;20053;-66
2022/06/19 21:50:09;;;;;;;8.60;5.35;;;;;;;;;;5052326;28;20061;-66
2022/06/19 21:52:37;;;;;;;7.43;5.13;;;;;;;;;;5052292;28;20502;-65
2022/06/19 21:55:05;;;;;;;6.07;4.90;;;;;;;;;;5034380;28;20037;-66
2022/06/19 21:57:33;;;;;;;7.13;4.88;;;;;;;;;;5052095;28;20060;-66
2022/06/19 22:00:01;;;;;;;8.93;5.45;;;;;;;;;;5052286;28;20040;-65
2022/06/19 22:02:28;;;;;;;7.40;4.55;;;;;;;;;;5052142;28;20041;-65
2022/06/19 22:04:56;;;;;;;6.63;4.32;;;;;;;;;;5052083;28;20041;-65
2022/06/19 22:07:43;;;;;;;6.07;4.45;;;;;;;;;;5052063;28;20048;-66
2022/06/19 22:13:09;;;;;;;7.95;4.65;;;;;;;;;;5052100;28;20063;-65
2022/06/19 22:15:37;;;;;;;7.95;4.70;;;;;;;;;;5055622;28;20044;-66
2022/06/19 22:18:05;;;;;;;6.47;4.28;;;;;;;;;;5055888;28;20047;-65
2022/06/19 22:20:33;;;;;;;8.88;4.43;;;;;;;;;;5055712;28;20509;-66
2022/06/19 22:23:01;;;;;;;8.15;4.68;;;;;;;;;;5055620;28;20398;-65
2022/06/19 22:25:29;;;;;;;7.78;4.88;;;;;;;;;;5055546;28;20521;-66
2022/06/19 22:27:56;;;;;;;8.98;4.30;;;;;;;;;;5055560;28;20073;-65
2022/06/19 22:30:25;;;;;;;5.93;4.03;;;;;;;;;;5055903;28;20055;-65
2022/06/19 22:32:53;;;;;;;7.03;4.68;;;;;;;;;;5055842;28;20072;-65
2022/06/19 22:35:21;;;;;;;5.10;3.95;;;;;;;;;;5055478;28;20037;-65
2022/06/19 22:37:49;;;;;;;5.55;3.65;;;;;;;;;;5037426;28;20057;-65
2022/06/19 22:40:20;;;;;;;6.38;3.45;;;;;;;;;;5055379;28;20056;-65
2022/06/19 22:42:52;;;;;;;7.18;4.20;;;;;;;;;;5037532;28;20045;-65
2022/06/19 22:45:24;;;;;;;7.22;4.80;;;;;;;;;;5055131;28;20056;-65
2022/06/19 22:47:52;;;;;;;7.20;4.93;;;;;;;;;;5055045;28;20048;-65
2022/06/19 22:50:21;;;;;;;6.70;4.55;;;;;;;;;;5055413;28;20044;-65
2022/06/19 22:52:49;;;;;;;9.52;4.30;;;;;;;;;;5055063;28;20120;-65
2022/06/19 22:55:17;;;;;;;6.90;4.15;;;;;;;;;;5055097;28;20051;-65
2022/06/19 22:57:47;;;;;;;4.80;3.40;;;;;;;;;;5055071;28;20563;-65
2022/06/19 23:03:11;;;;;;;5.45;3.40;;;;;;;;;;5054917;28;20115;-65
2022/06/19 23:05:39;;;;;;;4.70;3.13;;;;;;;;;;5055093;28;20041;-65
2022/06/19 23:08:08;;;;;;;5.53;3.30;;;;;;;;;;5054798;28;20041;-65
2022/06/19 23:10:35;;;;;;;8.80;3.45;;;;;;;;;;5054858;28;20045;-65
2022/06/19 23:13:03;;;;;;;3.05;2.75;;;;;;;;;;5054986;28;20420;-65
2022/06/19 23:15:31;;;;;;;5.15;3.20;;;;;;;;;;5054841;28;20074;-65
2022/06/19 23:18:01;;;;;;;5.50;3.40;;;;;;;;;;5054675;28;20436;-65
2022/06/19 23:20:33;;;;;;;3.88;3.15;;;;;;;;;;5054647;28;20045;-65
2022/06/19 23:23:05;;;;;;;4.28;3.38;;;;;;;;;;5054895;28;20363;-65
2022/06/19 23:25:32;;;;;;;6.53;4.13;;;;;;;;;;5054421;28;20457;-65
2022/06/19 23:28:00;;;;;;;4.68;3.38;;;;;;;;;;5054595;28;20394;-65
2022/06/19 23:30:28;;;;;;;6.82;3.20;;;;;;;;;;5054453;28;20490;-65
2022/06/19 23:32:56;;;;;;;6.90;3.85;;;;;;;;;;5054443;28;20060;-65
2022/06/19 23:35:23;;;;;;;7.00;3.60;;;;;;;;;;5054326;28;20111;-65
2022/06/19 23:37:53;;;;;;;6.25;3.67;;;;;;;;;;5054115;28;20045;-65
2022/06/19 23:40:21;;;;;;;5.15;3.60;;;;;;;;;;5054147;28;20075;-65
2022/06/19 23:42:49;;;;;;;6.57;3.90;;;;;;;;;;5054238;28;20044;-65
2022/06/19 23:45:19;;;;;;;6.65;3.80;;;;;;;;;;5054208;28;20071;-65
2022/06/19 23:47:47;;;;;;;8.27;4.18;;;;;;;;;;5054104;28;20041;-65
2022/06/19 23:50:16;;;;;;;7.88;3.92;;;;;;;;;;5036196;28;20048;-65
2022/06/19 23:52:44;;;;;;;8.48;4.43;;;;;;;;;;5053888;28;20119;-65
2022/06/19 23:55:11;;;;;;;6.05;3.55;;;;;;;;;;5054009;28;20037;-65
2022/06/19 23:57:39;;;;;;;4.57;3.33;;;;;;;;;;5053916;28;20072;-65
